Time;durP1;ratioP1;P1;durP2;ratioP2;P2;SDS_P1;SDS_P2;PMS_P1;PMS_P2;Temp;Humidity;BMP_temperature;BMP_pressure;BME280_temperature;BME280_humidity;BME280_pressure;Samples;Min_cycle;Max_cycle;Signal;HPM_P1;HPM_P2
2022/01/16 00:00:15;;;;;;;149.10;69.70;;;;;;;-0.40;84.69;101260.36;105404;1273;205465;-60
2022/01/16 00:05:55;;;;;;;149.60;59.20;;;;;;;-0.43;84.55;101255.08;105740;1274;22537;-61
2022/01/16 00:08:26;;;;;;;141.30;57.80;;;;;;;-0.43;84.43;101257.98;105686;1273;24318;-61
2022/01/16 00:10:59;;;;;;;136.30;54.30;;;;;;;-0.45;84.40;101257.96;105538;1274;22542;-60
2022/01/16 00:13:30;;;;;;;131.90;55.60;;;;;;;-0.49;84.34;101244.30;105633;1274;25570;-60
2022/01/16 00:16:01;;;;;;;135.30;57.00;;;;;;;-0.53;84.34;101232.59;105576;1274;24285;-60
2022/01/16 00:18:42;;;;;;;126.20;52.40;;;;;;;-0.55;84.38;101236.02;105688;1273;22624;-60
2022/01/16 00:21:13;;;;;;;129.10;55.30;;;;;;;-0.60;84.28;101248.20;105549;1273;25487;-60
2022/01/16 00:23:43;;;;;;;132.40;55.00;;;;;;;-0.64;84.29;101268.07;105560;1274;25528;-60
2022/01/16 00:26:15;;;;;;;127.10;56.80;;;;;;;-0.63;84.28;101267.13;105573;1274;25020;-59
2022/01/16 00:28:46;;;;;;;130.60;59.20;;;;;;;-0.64;84.15;101256.31;105753;1274;25559;-60
2022/01/16 00:31:17;;;;;;;150.70;62.50;;;;;;;-0.65;84.13;101254.11;105643;1273;26807;-60
2022/01/16 00:33:48;;;;;;;151.70;63.20;;;;;;;-0.68;83.97;101221.88;105846;1273;24268;-61
2022/01/16 00:36:21;;;;;;;129.00;59.40;;;;;;;-0.70;83.98;101187.16;105726;1274;22587;-61
2022/01/16 00:38:54;;;;;;;135.40;57.70;;;;;;;-0.70;84.01;101198.20;105773;1274;25621;-60
2022/01/16 00:41:25;;;;;;;135.50;56.90;;;;;;;-0.71;83.80;101206.04;105532;1272;22538;-61
2022/01/16 00:43:56;;;;;;;135.00;58.10;;;;;;;-0.71;83.93;101201.96;105619;1274;24426;-61
2022/01/16 00:46:28;;;;;;;128.10;55.20;;;;;;;-0.72;83.80;101215.27;105577;1274;24898;-60
2022/01/16 00:48:58;;;;;;;130.30;56.10;;;;;;;-0.72;83.67;101238.30;105754;1274;22774;-60
2022/01/16 00:51:29;;;;;;;138.20;57.80;;;;;;;-0.73;83.75;101229.44;105576;1274;22539;-60
2022/01/16 00:54:00;;;;;;;144.60;60.30;;;;;;;-0.73;83.72;101253.88;105676;1274;25539;-60
2022/01/16 00:56:31;;;;;;;146.00;62.20;;;;;;;-0.75;83.55;101243.36;105560;1274;22497;-61
2022/01/16 00:59:03;;;;;;;143.40;66.50;;;;;;;-0.78;83.54;101218.66;105535;1273;25579;-61
2022/01/16 01:01:34;;;;;;;150.30;64.80;;;;;;;-0.81;83.47;101219.27;105536;1274;22528;-59
2022/01/16 01:04:05;;;;;;;143.60;65.70;;;;;;;-0.83;83.30;101230.22;105567;1274;22750;-62
2022/01/16 01:06:36;;;;;;;152.10;65.00;;;;;;;-0.86;83.27;101231.76;105675;1274;22760;-62
2022/01/16 01:09:07;;;;;;;142.70;62.80;;;;;;;-0.88;83.35;101221.79;105562;1275;22733;-59
2022/01/16 01:11:40;;;;;;;151.80;66.30;;;;;;;-0.91;83.12;101237.42;105564;1274;25596;-60
2022/01/16 01:14:21;;;;;;;149.60;64.10;;;;;;;-0.96;82.94;101247.10;105908;1275;22629;-60
2022/01/16 01:16:54;;;;;;;134.20;61.40;;;;;;;-1.03;82.63;101217.80;105526;1274;22538;-60
2022/01/16 01:19:31;;;;;;;137.50;60.50;;;;;;;-1.12;82.53;101204.02;105560;1274;26132;-60
2022/01/16 01:22:04;;;;;;;142.70;62.60;;;;;;;-1.16;82.78;101207.34;105575;1274;23111;-59
2022/01/16 01:24:36;;;;;;;135.10;60.40;;;;;;;-1.20;82.62;101209.80;105730;1274;22586;-60
2022/01/16 01:27:17;;;;;;;148.20;63.00;;;;;;;-1.23;82.92;101217.39;105568;1274;22671;-60
2022/01/16 01:29:54;;;;;;;139.50;60.40;;;;;;;-1.24;82.87;101229.89;105533;1273;22585;-60
2022/01/16 01:32:25;;;;;;;146.90;61.20;;;;;;;-1.25;82.91;101229.10;105516;1275;22887;-60
2022/01/16 01:34:56;;;;;;;147.40;62.60;;;;;;;-1.26;82.93;101213.35;105575;1274;22583;-60
2022/01/16 01:37:27;;;;;;;131.60;56.80;;;;;;;-1.28;82.82;101227.42;105571;1274;22579;-60
2022/01/16 01:39:59;;;;;;;145.30;60.20;;;;;;;-1.30;82.74;101171.83;105581;1274;24234;-61
2022/01/16 01:42:34;;;;;;;143.60;62.00;;;;;;;-1.32;82.82;101096.90;105544;1274;24466;-61
2022/01/16 01:51:04;;;;;;;140.00;63.10;;;;;;;-1.37;82.57;101072.45;105529;1275;22706;-64
2022/01/16 01:53:36;;;;;;;146.30;63.10;;;;;;;-1.39;82.68;101103.34;105530;1274;22704;-59
2022/01/16 01:56:08;;;;;;;143.00;65.20;;;;;;;-1.42;82.59;101128.34;105725;1275;22584;-59
2022/01/16 01:58:39;;;;;;;136.00;59.50;;;;;;;-1.47;82.46;101130.66;105682;1274;24223;-59
2022/01/16 02:01:10;;;;;;;153.80;65.30;;;;;;;-1.52;82.59;101144.36;105493;1274;22557;-58
2022/01/16 02:03:43;;;;;;;154.80;65.50;;;;;;;-1.57;82.47;101137.98;105604;1274;22755;-59
2022/01/16 02:06:18;;;;;;;136.00;61.60;;;;;;;-1.60;82.75;101136.70;105726;1274;22749;-59
2022/01/16 02:08:51;;;;;;;145.40;61.00;;;;;;;-1.62;82.71;101133.30;105634;1274;22555;-60
2022/01/16 02:11:26;;;;;;;138.40;59.30;;;;;;;-1.65;82.69;101150.26;105616;1274;25511;-60
2022/01/16 02:14:03;;;;;;;147.60;63.30;;;;;;;-1.67;82.74;101134.98;105616;1274;25600;-59
2022/01/16 02:28:19;;;;;;;147.50;64.50;;;;;;;-1.83;82.20;101135.66;105488;1274;24260;-59
2022/01/16 02:31:15;;;;;;;156.10;66.90;;;;;;;-1.85;82.21;101138.45;105578;1274;22592;-60
2022/01/16 02:36:45;;;;;;;147.00;62.30;;;;;;;-1.91;82.21;101155.51;105564;1274;25534;-59
2022/01/16 02:39:17;;;;;;;149.30;61.50;;;;;;;-1.93;82.13;101155.72;105557;1274;22953;-59
2022/01/16 02:41:47;;;;;;;143.60;63.10;;;;;;;-1.95;82.18;101155.21;105595;1274;22573;-59
2022/01/16 02:44:23;;;;;;;148.80;62.30;;;;;;;-1.98;82.10;101146.20;105533;1274;25596;-59
2022/01/16 02:46:55;;;;;;;145.50;63.80;;;;;;;-2.01;81.93;101142.39;105563;1274;22552;-58
2022/01/16 02:49:28;;;;;;;149.30;60.40;;;;;;;-2.06;81.74;101136.55;105726;1274;23137;-59
2022/01/16 02:52:01;;;;;;;162.20;66.40;;;;;;;-2.11;81.76;101120.86;105818;1274;22641;-59
2022/01/16 02:54:35;;;;;;;152.30;64.40;;;;;;;-2.14;81.80;101113.09;105734;1274;24424;-59
2022/01/16 02:57:09;;;;;;;147.90;61.90;;;;;;;-2.17;81.80;101109.84;105525;1274;24476;-60
2022/01/16 02:59:41;;;;;;;150.70;65.10;;;;;;;-2.19;81.87;101108.09;105878;1274;24406;-60
2022/01/16 03:02:12;;;;;;;152.80;64.50;;;;;;;-2.24;81.64;101117.41;105743;1274;22704;-59
2022/01/16 03:04:44;;;;;;;149.30;63.80;;;;;;;-2.28;81.72;101115.94;105572;1274;25642;-59
2022/01/16 03:07:16;;;;;;;156.70;63.90;;;;;;;-2.33;81.76;101111.83;105741;1274;24402;-59
2022/01/16 03:10:06;;;;;;;135.60;61.60;;;;;;;-2.38;81.59;101112.63;105952;1274;24275;-59
2022/01/16 03:12:35;;;;;;;;;;;;;;;-2.47;81.26;101111.48;105929;1274;24691;-59
2022/01/16 03:15:07;;;;;;;155.30;62.20;;;;;;;-2.56;81.48;101100.98;105804;1274;25554;-59
2022/01/16 03:17:52;;;;;;;144.10;62.10;;;;;;;-2.58;81.94;101090.02;105780;1274;24231;-58
2022/01/16 03:23:11;;;;;;;155.40;63.30;;;;;;;-2.61;81.63;101074.27;105648;1274;22807;-59
2022/01/16 03:25:42;;;;;;;147.50;63.80;;;;;;;-2.64;81.34;101066.58;105655;1274;25810;-59
2022/01/16 03:28:13;;;;;;;152.70;63.60;;;;;;;-2.70;81.30;101064.23;105674;1274;25624;-60
2022/01/16 03:30:45;;;;;;;147.30;62.50;;;;;;;-2.71;81.76;101056.10;105609;1274;26607;-59
2022/01/16 03:33:16;;;;;;;142.90;61.30;;;;;;;-2.72;81.36;101055.46;105681;1274;24845;-59
2022/01/16 03:35:47;;;;;;;143.20;61.50;;;;;;;-2.80;81.25;101056.13;105571;1274;25715;-59
2022/01/16 03:38:18;;;;;;;158.10;64.10;;;;;;;-2.83;81.49;101053.59;105660;1274;25582;-59
2022/01/16 03:40:51;;;;;;;139.50;61.70;;;;;;;-2.89;81.27;101040.48;105567;1274;25598;-59
2022/01/16 03:43:22;;;;;;;134.10;60.60;;;;;;;-2.91;81.47;101039.19;105532;1274;24316;-60
2022/01/16 03:45:53;;;;;;;137.10;61.40;;;;;;;-2.91;81.93;101034.66;105666;1274;23198;-59
2022/01/16 03:48:24;;;;;;;145.00;59.90;;;;;;;-2.88;81.95;101032.91;105540;1274;23081;-60
2022/01/16 03:50:55;;;;;;;153.10;62.40;;;;;;;-2.87;81.85;101032.22;105619;1273;24325;-58
2022/01/16 03:53:26;;;;;;;144.10;60.80;;;;;;;-2.85;81.82;101024.74;105571;1273;25615;-59
2022/01/16 03:55:57;;;;;;;142.20;63.40;;;;;;;-2.85;81.87;101025.30;105585;1274;22552;-60
2022/01/16 03:58:28;;;;;;;151.00;64.10;;;;;;;-2.85;81.60;101019.29;105588;1274;22656;-59
2022/01/16 04:00:59;;;;;;;150.20;62.30;;;;;;;-2.86;81.79;101014.83;105652;1274;22794;-60
2022/01/16 04:03:29;;;;;;;141.10;60.50;;;;;;;-2.86;81.55;101018.81;105795;1274;22653;-60
2022/01/16 04:06:01;;;;;;;152.50;60.90;;;;;;;-2.92;81.36;101020.44;105523;1274;22673;-57
2022/01/16 04:08:32;;;;;;;127.10;55.00;;;;;;;-2.96;81.51;101011.48;105631;1274;22673;-60
2022/01/16 04:11:04;;;;;;;119.20;52.30;;;;;;;-2.99;81.57;101009.17;105572;1274;22619;-59
2022/01/16 04:13:34;;;;;;;114.50;52.50;;;;;;;-3.02;81.77;101006.17;105617;1274;26953;-58
2022/01/16 04:16:06;;;;;;;117.40;51.70;;;;;;;-3.02;82.08;101000.55;105604;1273;25835;-59
2022/01/16 04:18:36;;;;;;;116.10;48.50;;;;;;;-3.01;82.09;100995.01;105555;1274;22665;-59
2022/01/16 04:21:06;;;;;;;;;;;;;;;-3.03;82.12;100991.48;105601;1273;22583;-59
2022/01/16 04:23:37;;;;;;;119.70;52.30;;;;;;;-3.03;82.29;100991.88;105750;1274;25898;-59
2022/01/16 04:26:08;;;;;;;122.10;50.80;;;;;;;-3.03;82.27;100987.89;105537;1274;25573;-56
2022/01/16 04:28:38;;;;;;;112.40;52.40;;;;;;;-3.04;82.43;100993.41;105562;1274;22626;-59
2022/01/16 04:31:09;;;;;;;119.80;49.90;;;;;;;-3.07;82.30;100994.30;105568;1274;23370;-59
2022/01/16 04:33:41;;;;;;;113.50;49.70;;;;;;;-3.07;82.32;100989.09;105697;1273;22689;-61
2022/01/16 04:36:12;;;;;;;114.00;50.50;;;;;;;-3.08;82.31;100986.89;105531;1273;24410;-62
2022/01/16 04:38:47;;;;;;;116.60;48.90;;;;;;;-3.08;82.27;100973.47;105815;1274;25540;-60
2022/01/16 04:44:11;;;;;;;122.60;49.60;;;;;;;-3.16;82.04;100960.24;105709;1274;25635;-59
2022/01/16 04:46:46;;;;;;;117.40;51.60;;;;;;;-3.16;82.14;100955.46;105633;1273;24357;-59
2022/01/16 04:49:17;;;;;;;121.40;49.10;;;;;;;-3.15;82.14;100956.04;105753;1273;24832;-59
2022/01/16 04:51:48;;;;;;;112.10;46.30;;;;;;;-3.14;82.12;100950.35;105598;1274;24292;-59
2022/01/16 04:54:19;;;;;;;128.50;49.10;;;;;;;-3.13;82.24;100950.93;105796;1273;24231;-59
2022/01/16 04:56:50;;;;;;;115.70;49.10;;;;;;;-3.13;82.21;100948.50;105575;1274;24305;-59
2022/01/16 04:59:22;;;;;;;113.40;52.10;;;;;;;-3.13;82.19;100942.97;105659;1273;22701;-59
2022/01/16 05:01:53;;;;;;;115.40;48.90;;;;;;;-3.12;82.06;100935.33;106112;1274;26809;-60
2022/01/16 05:04:23;;;;;;;118.10;52.10;;;;;;;-3.13;81.91;100937.66;105892;1273;24215;-59
2022/01/16 05:06:52;;;;;;;;;;;;;;;-3.14;81.78;100936.14;105616;1274;24331;-59
2022/01/16 05:09:23;;;;;;;119.90;50.30;;;;;;;-3.20;81.58;100931.23;105552;1274;27594;-59
2022/01/16 05:11:57;;;;;;;117.90;49.10;;;;;;;-3.24;81.65;100930.24;105578;1273;22623;-59
2022/01/16 05:17:16;;;;;;;115.30;49.30;;;;;;;-3.25;81.64;100921.73;105535;1274;26977;-60
2022/01/16 05:19:45;;;;;;;;;;;;;;;-3.24;81.79;100919.17;105577;1274;22679;-60
2022/01/16 05:22:16;;;;;;;109.10;45.60;;;;;;;-3.23;81.91;100914.03;105709;1273;25724;-60
2022/01/16 05:24:47;;;;;;;113.40;49.80;;;;;;;-3.21;81.83;100914.76;105594;1274;22658;-59
2022/01/16 05:27:18;;;;;;;127.50;52.00;;;;;;;-3.23;81.70;100905.92;105547;1273;23271;-59
2022/01/16 05:29:48;;;;;;;125.10;49.90;;;;;;;-3.24;81.52;100904.51;105590;1273;25749;-60
2022/01/16 05:32:19;;;;;;;135.30;55.80;;;;;;;-3.26;81.60;100902.45;105569;1274;25529;-60
2022/01/16 05:34:48;;;;;;;;;;;;;;;-3.26;81.50;100898.01;105567;1273;25252;-59
2022/01/16 05:37:19;;;;;;;141.40;58.20;;;;;;;-3.25;81.73;100887.63;105646;1274;24347;-59
2022/01/16 05:39:49;;;;;;;;;;;;;;;-3.25;81.53;100887.41;105611;1273;22616;-59
2022/01/16 05:42:20;;;;;;;151.40;62.10;;;;;;;-3.26;81.56;100887.48;105715;1273;22787;-59
2022/01/16 05:44:50;;;;;;;164.70;67.10;;;;;;;-3.27;81.34;100888.31;105575;1274;26878;-57
2022/01/16 05:47:21;;;;;;;161.00;65.90;;;;;;;-3.29;81.34;100882.45;105541;1273;24233;-59
2022/01/16 05:49:52;;;;;;;173.30;68.20;;;;;;;-3.27;81.60;100882.92;105572;1274;25688;-59
2022/01/16 05:52:22;;;;;;;219.80;88.20;;;;;;;-3.27;81.50;100884.88;105521;1273;22672;-60
2022/01/16 05:54:54;;;;;;;203.80;80.20;;;;;;;-3.27;81.45;100878.88;105601;1274;23167;-59
2022/01/16 05:57:25;;;;;;;198.00;77.20;;;;;;;-3.28;81.27;100875.82;105566;1273;22883;-60
2022/01/16 05:59:55;;;;;;;205.70;83.60;;;;;;;-3.30;81.20;100871.59;105572;1273;25621;-59
2022/01/16 06:02:27;;;;;;;172.20;68.90;;;;;;;-3.33;81.15;100870.14;105594;1273;24830;-59
2022/01/16 06:04:58;;;;;;;167.50;69.30;;;;;;;-3.37;81.22;100863.30;105612;1274;22841;-58
2022/01/16 06:07:28;;;;;;;170.80;63.50;;;;;;;-3.42;81.35;100860.04;105577;1274;25617;-56
2022/01/16 06:10:00;;;;;;;158.70;60.30;;;;;;;-3.46;81.57;100861.77;105575;1274;22548;-59
2022/01/16 06:12:32;;;;;;;156.80;60.10;;;;;;;-3.50;81.68;100862.58;105733;1272;24090;-60
2022/01/16 06:15:05;;;;;;;150.50;59.40;;;;;;;-3.56;81.75;100857.89;105669;1274;22832;-60
2022/01/16 06:17:36;;;;;;;153.30;58.80;;;;;;;-3.64;81.99;100855.29;105549;1274;23103;-58
2022/01/16 06:20:08;;;;;;;148.00;58.70;;;;;;;-3.67;82.27;100847.98;105538;1273;22597;-59
2022/01/16 06:22:39;;;;;;;163.80;61.20;;;;;;;-3.70;82.32;100843.51;105876;1274;24354;-59
2022/01/16 06:25:12;;;;;;;139.00;53.80;;;;;;;-3.74;82.56;100838.92;105559;1273;24434;-60
2022/01/16 06:27:44;;;;;;;124.10;54.10;;;;;;;-3.77;82.72;100835.14;105679;1273;22648;-59
2022/01/16 06:30:15;;;;;;;127.50;49.50;;;;;;;-3.79;82.75;100830.98;105751;1274;25621;-59
2022/01/16 06:32:47;;;;;;;115.60;48.80;;;;;;;-3.81;82.78;100828.47;105708;1274;22706;-59
2022/01/16 06:35:18;;;;;;;104.80;41.00;;;;;;;-3.81;82.97;100822.77;105630;1274;22985;-60
2022/01/16 06:37:49;;;;;;;114.90;44.30;;;;;;;-3.83;83.05;100819.30;105584;1273;22596;-59
2022/01/16 06:40:20;;;;;;;110.10;45.70;;;;;;;-3.88;83.07;100818.45;105565;1273;22687;-60
2022/01/16 06:42:51;;;;;;;115.40;46.60;;;;;;;-3.92;83.12;100814.11;105597;1273;24278;-59
2022/01/16 06:45:22;;;;;;;107.80;45.40;;;;;;;-3.94;83.24;100807.16;105596;1273;22672;-61
2022/01/16 06:47:53;;;;;;;117.20;47.80;;;;;;;-3.94;83.39;100807.70;105545;1274;22652;-60
2022/01/16 06:50:23;;;;;;;107.30;48.60;;;;;;;-3.92;83.45;100811.31;105546;1273;25552;-60
2022/01/16 06:52:54;;;;;;;108.80;46.00;;;;;;;-3.90;83.41;100807.52;105571;1274;25647;-60
2022/01/16 06:55:25;;;;;;;117.90;49.40;;;;;;;-3.89;83.37;100807.06;105659;1273;24486;-59
2022/01/16 06:57:56;;;;;;;115.40;50.10;;;;;;;-3.86;83.37;100807.96;105600;1273;24591;-59
2022/01/16 07:00:27;;;;;;;124.80;57.70;;;;;;;-3.86;83.41;100806.18;105919;1273;26447;-61
2022/01/16 07:02:58;;;;;;;119.60;46.60;;;;;;;-3.85;83.33;100806.20;105563;1274;25628;-60
2022/01/16 07:05:29;;;;;;;111.40;46.80;;;;;;;-3.86;83.40;100809.45;105482;1274;24451;-59
2022/01/16 07:08:00;;;;;;;117.10;48.20;;;;;;;-3.87;83.55;100808.42;105393;1274;22893;-60
2022/01/16 07:10:31;;;;;;;112.00;45.30;;;;;;;-3.87;83.57;100802.79;105551;1273;24241;-58
2022/01/16 07:13:05;;;;;;;118.70;47.00;;;;;;;-3.88;83.76;100799.21;105772;1274;24170;-60
2022/01/16 07:15:35;;;;;;;107.00;45.80;;;;;;;-3.88;83.80;100795.85;105740;1274;22599;-60
2022/01/16 07:18:07;;;;;;;114.60;44.70;;;;;;;-3.87;83.80;100796.73;105524;1273;25573;-59
2022/01/16 07:20:39;;;;;;;105.70;45.40;;;;;;;-3.90;83.81;100792.70;105686;1273;25591;-59
2022/01/16 07:23:10;;;;;;;104.80;43.70;;;;;;;-3.92;83.93;100792.77;105540;1274;22629;-60
2022/01/16 07:25:42;;;;;;;108.80;48.10;;;;;;;-3.92;84.01;100791.11;105717;1274;24309;-59
2022/01/16 07:28:14;;;;;;;107.10;47.80;;;;;;;-3.92;84.09;100787.30;105558;1274;26750;-62
2022/01/16 07:30:45;;;;;;;114.50;49.10;;;;;;;-3.91;84.12;100790.13;105714;1274;22726;-61
2022/01/16 07:33:16;;;;;;;119.90;51.00;;;;;;;-3.89;84.20;100790.16;105850;1274;22813;-61
2022/01/16 07:35:47;;;;;;;118.80;52.50;;;;;;;-3.87;84.38;100787.85;105635;1273;25543;-60
2022/01/16 07:38:20;;;;;;;120.60;49.20;;;;;;;-3.83;84.43;100793.20;105739;1274;26749;-59
2022/01/16 07:40:51;;;;;;;116.50;51.20;;;;;;;-3.78;84.51;100791.08;105898;1273;26771;-60
2022/01/16 07:43:22;;;;;;;113.10;48.70;;;;;;;-3.74;84.48;100792.46;105922;1273;25653;-62
2022/01/16 07:45:53;;;;;;;111.10;45.40;;;;;;;-3.70;84.52;100794.33;106034;1273;23625;-61
2022/01/16 07:48:24;;;;;;;122.60;49.10;;;;;;;-3.68;84.44;100796.45;105922;1274;25554;-60
2022/01/16 07:50:55;;;;;;;123.60;53.80;;;;;;;-3.64;84.55;100793.54;105565;1274;25617;-60
2022/01/16 07:53:27;;;;;;;126.50;53.60;;;;;;;-3.62;84.57;100788.81;105700;1273;22668;-60
2022/01/16 07:55:58;;;;;;;134.40;55.50;;;;;;;-3.58;84.51;100782.55;105741;1274;24209;-60
2022/01/16 08:01:15;;;;;;;129.50;57.10;;;;;;;-3.49;84.49;100786.40;105661;1274;24192;-61
2022/01/16 08:03:47;;;;;;;126.60;56.50;;;;;;;-3.45;84.54;100785.14;105782;1274;23304;-60
2022/01/16 08:06:20;;;;;;;135.40;59.60;;;;;;;-3.41;84.60;100781.98;105846;1274;25511;-60
2022/01/16 08:08:51;;;;;;;123.10;57.20;;;;;;;-3.39;84.69;100777.79;105765;1273;25611;-63
2022/01/16 08:11:22;;;;;;;168.20;75.80;;;;;;;-3.37;84.68;100776.48;105707;1273;22732;-60
2022/01/16 08:13:54;;;;;;;169.50;74.60;;;;;;;-3.35;84.80;100774.95;105698;1273;24286;-61
2022/01/16 08:16:26;;;;;;;187.60;86.70;;;;;;;-3.33;84.92;100770.70;105640;1273;22712;-60
2022/01/16 08:18:58;;;;;;;150.70;64.50;;;;;;;-3.30;85.22;100769.56;105898;1274;24301;-61
2022/01/16 08:21:31;;;;;;;140.10;64.30;;;;;;;-3.26;85.12;100770.61;106067;1273;25717;-61
2022/01/16 08:24:04;;;;;;;170.40;73.30;;;;;;;-3.22;85.28;100773.55;105780;1273;25681;-60
2022/01/16 08:26:37;;;;;;;181.30;80.80;;;;;;;-3.19;85.42;100767.88;105759;1273;22792;-60
2022/01/16 08:29:10;;;;;;;252.10;112.30;;;;;;;-3.16;85.38;100767.59;105789;1273;25569;-61
2022/01/16 08:31:43;;;;;;;189.00;87.00;;;;;;;-3.13;85.69;100769.52;105755;1273;25588;-61
2022/01/16 08:34:14;;;;;;;147.00;64.80;;;;;;;-3.07;85.65;100767.92;105643;1274;25635;-61
2022/01/16 08:36:46;;;;;;;127.90;55.70;;;;;;;-3.02;85.90;100763.36;105799;1273;22870;-61
2022/01/16 08:39:19;;;;;;;140.60;64.30;;;;;;;-2.97;85.76;100767.26;106026;1273;24529;-62
2022/01/16 08:41:51;;;;;;;133.80;60.10;;;;;;;-2.91;85.89;100764.19;106202;1272;25533;-62
2022/01/16 08:44:22;;;;;;;140.10;61.70;;;;;;;-2.86;85.92;100755.11;106205;1273;24286;-62
2022/01/16 08:46:54;;;;;;;125.30;57.20;;;;;;;-2.80;86.09;100748.76;106143;1274;24180;-62
2022/01/16 08:49:26;;;;;;;168.40;79.50;;;;;;;-2.75;86.08;100747.25;106209;1273;25509;-62
2022/01/16 08:51:58;;;;;;;131.90;59.50;;;;;;;-2.70;86.25;100742.85;106143;1273;22672;-62
2022/01/16 08:54:29;;;;;;;126.60;56.90;;;;;;;-2.64;86.23;100728.30;106331;1273;22551;-63
2022/01/16 08:57:02;;;;;;;147.20;68.90;;;;;;;-2.59;86.51;100718.02;106514;1272;22818;-63
2022/01/16 08:59:33;;;;;;;140.30;63.50;;;;;;;-2.54;86.34;100719.70;106196;1273;23504;-62
2022/01/16 09:02:05;;;;;;;144.10;62.60;;;;;;;-2.48;86.45;100716.30;106224;1273;22771;-61
2022/01/16 09:04:36;;;;;;;133.10;60.20;;;;;;;-2.41;86.47;100715.25;106219;1274;22979;-63
2022/01/16 09:07:08;;;;;;;122.90;60.70;;;;;;;-2.36;86.52;100713.27;106119;1274;22823;-62
2022/01/16 09:09:40;;;;;;;131.20;59.60;;;;;;;-2.31;86.56;100702.60;106309;1273;22562;-62
2022/01/16 09:12:13;;;;;;;136.90;62.40;;;;;;;-2.26;86.69;100699.66;106092;1273;22899;-61
2022/01/16 09:14:44;;;;;;;129.40;64.00;;;;;;;-2.20;86.73;100698.84;106151;1274;25543;-62
2022/01/16 09:17:16;;;;;;;133.00;63.90;;;;;;;-2.15;86.87;100696.69;106133;1273;28033;-62
2022/01/16 09:19:47;;;;;;;135.70;58.70;;;;;;;-2.10;86.82;100687.55;106041;1273;22624;-69
2022/01/16 09:22:19;;;;;;;158.20;66.50;;;;;;;-2.04;86.86;100687.98;106449;1273;24232;-63
2022/01/16 09:24:50;;;;;;;126.80;58.50;;;;;;;-1.99;86.88;100685.19;105870;1273;25591;-62
2022/01/16 09:27:21;;;;;;;138.00;60.80;;;;;;;-1.94;86.83;100685.38;105990;1274;24233;-61
2022/01/16 09:29:52;;;;;;;144.70;67.50;;;;;;;-1.88;87.00;100680.48;105961;1273;22680;-63
2022/01/16 09:32:23;;;;;;;149.90;69.60;;;;;;;-1.82;86.94;100683.02;106018;1273;24255;-64
2022/01/16 09:34:54;;;;;;;153.00;72.50;;;;;;;-1.76;87.05;100692.96;105861;1273;22703;-63
2022/01/16 09:37:27;;;;;;;176.70;83.60;;;;;;;-1.70;87.01;100702.52;105878;1273;22704;-64
2022/01/16 09:39:59;;;;;;;168.20;82.20;;;;;;;-1.65;87.04;100700.67;105950;1273;25647;-63
2022/01/16 09:42:31;;;;;;;153.90;74.90;;;;;;;-1.59;87.25;100698.35;105815;1273;22701;-63
2022/01/16 09:45:04;;;;;;;148.90;70.40;;;;;;;-1.54;87.06;100696.80;106022;1273;25636;-63
2022/01/16 09:47:38;;;;;;;154.90;72.20;;;;;;;-1.47;87.10;100703.08;105957;1273;24801;-64
2022/01/16 09:50:12;;;;;;;134.40;63.60;;;;;;;-1.42;87.43;100706.70;105956;1273;25889;-64
2022/01/16 09:52:46;;;;;;;139.20;62.00;;;;;;;-1.36;87.28;100707.02;106105;1273;26975;-64
2022/01/16 09:55:20;;;;;;;117.40;57.00;;;;;;;-1.30;87.15;100698.89;106307;1273;24259;-63
2022/01/16 09:57:54;;;;;;;126.80;60.50;;;;;;;-1.26;87.09;100697.48;106081;1273;22829;-66
2022/01/16 10:00:28;;;;;;;133.40;54.70;;;;;;;-1.22;87.24;100692.98;106289;1273;22531;-65
2022/01/16 10:03:00;;;;;;;129.30;56.60;;;;;;;-1.18;87.32;100684.91;106150;1274;25527;-65
2022/01/16 10:05:36;;;;;;;127.60;57.90;;;;;;;-1.12;87.32;100690.48;105917;1273;22569;-66
2022/01/16 10:08:11;;;;;;;142.60;57.40;;;;;;;-1.08;87.32;100694.56;106504;1273;24505;-65
2022/01/16 10:10:44;;;;;;;135.90;64.80;;;;;;;-1.04;87.10;100688.69;107189;1273;22733;-65
2022/01/16 10:13:33;;;;;;;130.70;60.40;;;;;;;-1.00;87.21;100679.70;106230;1273;23362;-66
2022/01/16 10:16:07;;;;;;;137.40;61.00;;;;;;;-0.95;87.17;100674.77;105592;1270;171046;-66
2022/01/16 10:18:40;;;;;;;133.50;59.00;;;;;;;-0.90;87.28;100676.18;106761;1270;24331;-66
2022/01/16 10:21:30;;;;;;;143.40;61.30;;;;;;;-0.84;87.35;100677.98;106213;1270;25595;-66
2022/01/16 10:24:15;;;;;;;130.80;60.30;;;;;;;-0.79;87.45;100676.65;106251;1270;22605;-66
2022/01/16 10:26:47;;;;;;;117.80;55.10;;;;;;;-0.73;87.41;100679.07;105962;1270;22696;-66
2022/01/16 10:29:20;;;;;;;112.60;55.70;;;;;;;-0.69;87.51;100675.08;106196;1271;25642;-66
2022/01/16 10:32:10;;;;;;;113.50;54.30;;;;;;;-0.63;87.56;100669.35;106158;1270;22568;-66
2022/01/16 10:34:41;;;;;;;118.90;51.20;;;;;;;-0.57;87.54;100655.56;106134;1270;23106;-61
2022/01/16 10:37:27;;;;;;;117.80;51.30;;;;;;;-0.51;87.66;100650.30;106761;1270;22571;-60
2022/01/16 10:40:01;;;;;;;128.70;53.40;;;;;;;-0.46;87.54;100642.29;106616;1271;22728;-61
2022/01/16 10:42:34;;;;;;;131.50;53.10;;;;;;;-0.43;87.47;100634.06;106641;1270;24231;-65
2022/01/16 10:45:08;;;;;;;131.00;53.20;;;;;;;-0.39;87.70;100622.85;106204;1270;22541;-62
2022/01/16 10:47:41;;;;;;;117.30;53.90;;;;;;;-0.32;87.81;100616.48;106465;1270;22560;-61
2022/01/16 10:50:21;;;;;;;121.80;52.80;;;;;;;-0.27;87.82;100611.29;106412;1270;26036;-63
2022/01/16 10:52:56;;;;;;;116.50;49.80;;;;;;;-0.20;87.85;100605.77;106375;1270;22733;-60
2022/01/16 10:55:40;;;;;;;120.10;54.30;;;;;;;-0.14;87.90;100591.73;106321;1270;22619;-60
2022/01/16 10:58:15;;;;;;;119.90;52.80;;;;;;;-0.07;88.00;100591.15;106554;1270;22554;-60
2022/01/16 11:00:51;;;;;;;110.80;53.60;;;;;;;-0.01;88.08;100584.23;106389;1270;22483;-60
2022/01/16 11:03:26;;;;;;;112.10;51.60;;;;;;;0.06;88.07;100580.73;106334;1270;22483;-58
2022/01/16 11:05:58;;;;;;;105.00;48.60;;;;;;;0.14;88.13;100580.15;106299;1270;22563;-62
2022/01/16 11:08:29;;;;;;;101.00;45.20;;;;;;;0.22;88.24;100576.89;106319;1270;22542;-62
2022/01/16 11:11:00;;;;;;;94.70;43.60;;;;;;;0.29;88.17;100567.67;106415;1270;22538;-60
2022/01/16 11:13:40;;;;;;;97.70;45.00;;;;;;;0.34;88.06;100565.82;106716;1270;25390;-54
2022/01/16 11:16:11;;;;;;;111.10;52.20;;;;;;;0.40;88.12;100567.91;106502;1270;22568;-60
2022/01/16 11:18:48;;;;;;;103.20;48.40;;;;;;;0.47;88.22;100569.98;106460;1270;25336;-57
2022/01/16 11:21:31;;;;;;;122.30;52.50;;;;;;;0.54;88.29;100568.84;106482;1270;22580;-58
2022/01/16 11:24:23;;;;;;;109.00;53.20;;;;;;;0.63;88.29;100564.07;106200;1270;24067;-57
2022/01/16 11:26:54;;;;;;;108.10;50.10;;;;;;;0.72;88.54;100563.67;106337;1270;22538;-58
2022/01/16 11:29:26;;;;;;;123.20;55.10;;;;;;;0.81;88.50;100567.53;106326;1270;22587;-59
2022/01/16 11:32:01;;;;;;;116.60;51.80;;;;;;;0.91;88.56;100572.71;106268;1270;24254;-57
2022/01/16 11:34:32;;;;;;;135.00;62.80;;;;;;;0.99;88.49;100572.80;106235;1271;24236;-58
2022/01/16 11:37:04;;;;;;;125.10;59.60;;;;;;;1.09;88.55;100569.88;106345;1270;24110;-59
2022/01/16 11:39:39;;;;;;;108.90;51.30;;;;;;;1.18;88.66;100567.45;106137;1270;22623;-59
2022/01/16 11:42:23;;;;;;;102.80;50.00;;;;;;;1.27;88.57;100567.52;106244;1271;22690;-59
2022/01/16 11:44:55;;;;;;;110.10;51.80;;;;;;;1.36;88.62;100567.41;106272;1270;25586;-60
2022/01/16 11:47:26;;;;;;;108.30;50.50;;;;;;;1.44;88.72;100564.66;107318;1269;24334;-60
2022/01/16 11:50:10;;;;;;;107.60;50.00;;;;;;;1.52;88.71;100564.17;106481;1269;23024;-59
2022/01/16 11:52:43;;;;;;;99.10;46.90;;;;;;;1.62;88.71;100564.30;106498;1270;25795;-58
2022/01/16 11:55:15;;;;;;;81.70;36.20;;;;;;;1.71;88.30;100556.40;106316;1270;22537;-59